sensor_id;sensor_type;location;lat;lon;timestamp;P1;durP1;ratioP1;P2;durP2;ratioP2
4744;SDS011;2386;42.138;24.746;2022-10-26T00:01:19;37.57;;;11.10;;
4744;SDS011;2386;42.138;24.746;2022-10-26T00:03:45;47.90;;;10.43;;
4744;SDS011;2386;42.138;24.746;2022-10-26T00:06:14;43.17;;;8.77;;
4744;SDS011;2386;42.138;24.746;2022-10-26T00:08:42;47.40;;;9.57;;
4744;SDS011;2386;42.138;24.746;2022-10-26T00:11:07;39.77;;;10.27;;
4744;SDS011;2386;42.138;24.746;2022-10-26T00:13:33;42.30;;;9.37;;
4744;SDS011;2386;42.138;24.746;2022-10-26T00:16:00;30.90;;;10.07;;
4744;SDS011;2386;42.138;24.746;2022-10-26T00:18:26;33.33;;;9.20;;
4744;SDS011;2386;42.138;24.746;2022-10-26T00:20:51;39.53;;;8.73;;
4744;SDS011;2386;42.138;24.746;2022-10-26T00:23:17;37.37;;;9.23;;
4744;SDS011;2386;42.138;24.746;2022-10-26T00:25:43;34.70;;;8.83;;
4744;SDS011;2386;42.138;24.746;2022-10-26T00:28:08;42.63;;;10.27;;
4744;SDS011;2386;42.138;24.746;2022-10-26T00:30:37;29.93;;;8.57;;
4744;SDS011;2386;42.138;24.746;2022-10-26T00:33:03;37.00;;;8.57;;
4744;SDS011;2386;42.138;24.746;2022-10-26T00:35:28;34.03;;;8.33;;
4744;SDS011;2386;42.138;24.746;2022-10-26T00:37:54;42.80;;;8.07;;
4744;SDS011;2386;42.138;24.746;2022-10-26T00:40:20;27.60;;;7.13;;
4744;SDS011;2386;42.138;24.746;2022-10-26T00:42:46;49.20;;;8.03;;
4744;SDS011;2386;42.138;24.746;2022-10-26T00:47:57;35.00;;;9.00;;
4744;SDS011;2386;42.138;24.746;2022-10-26T00:53:07;25.70;;;7.10;;
4744;SDS011;2386;42.138;24.746;2022-10-26T00:55:36;26.97;;;7.47;;
4744;SDS011;2386;42.138;24.746;2022-10-26T00:58:04;29.00;;;6.90;;
4744;SDS011;2386;42.138;24.746;2022-10-26T01:00:32;34.50;;;6.80;;
4744;SDS011;2386;42.138;24.746;2022-10-26T01:02:59;50.67;;;8.10;;
4744;SDS011;2386;42.138;24.746;2022-10-26T01:05:26;41.17;;;9.00;;
4744;SDS011;2386;42.138;24.746;2022-10-26T01:07:53;43.10;;;8.80;;
4744;SDS011;2386;42.138;24.746;2022-10-26T01:10:19;29.73;;;7.50;;
4744;SDS011;2386;42.138;24.746;2022-10-26T01:12:45;28.40;;;6.97;;
4744;SDS011;2386;42.138;24.746;2022-10-26T01:15:11;37.00;;;7.03;;
4744;SDS011;2386;42.138;24.746;2022-10-26T01:20:43;27.33;;;6.73;;
4744;SDS011;2386;42.138;24.746;2022-10-26T01:23:25;28.87;;;6.90;;
4744;SDS011;2386;42.138;24.746;2022-10-26T01:31:33;29.20;;;7.57;;
4744;SDS011;2386;42.138;24.746;2022-10-26T01:34:09;45.43;;;8.13;;
4744;SDS011;2386;42.138;24.746;2022-10-26T01:36:44;31.30;;;7.40;;
4744;SDS011;2386;42.138;24.746;2022-10-26T01:41:46;26.57;;;7.33;;
4744;SDS011;2386;42.138;24.746;2022-10-26T01:46:48;40.73;;;8.33;;
4744;SDS011;2386;42.138;24.746;2022-10-26T01:49:16;30.13;;;6.23;;
4744;SDS011;2386;42.138;24.746;2022-10-26T01:51:45;36.03;;;8.03;;
4744;SDS011;2386;42.138;24.746;2022-10-26T01:54:13;24.47;;;6.43;;
4744;SDS011;2386;42.138;24.746;2022-10-26T01:56:39;34.87;;;8.03;;
4744;SDS011;2386;42.138;24.746;2022-10-26T01:59:11;30.53;;;7.17;;
4744;SDS011;2386;42.138;24.746;2022-10-26T02:06:56;38.03;;;8.37;;
4744;SDS011;2386;42.138;24.746;2022-10-26T02:09:44;41.30;;;7.93;;
4744;SDS011;2386;42.138;24.746;2022-10-26T02:15:07;28.93;;;6.20;;
4744;SDS011;2386;42.138;24.746;2022-10-26T02:20:55;28.93;;;6.70;;
4744;SDS011;2386;42.138;24.746;2022-10-26T02:23:05;24.97;;;6.20;;
4744;SDS011;2386;42.138;24.746;2022-10-26T02:25:34;35.53;;;7.93;;
4744;SDS011;2386;42.138;24.746;2022-10-26T02:28:05;36.97;;;8.37;;
4744;SDS011;2386;42.138;24.746;2022-10-26T02:30:37;29.03;;;6.93;;
4744;SDS011;2386;42.138;24.746;2022-10-26T02:33:05;38.80;;;7.80;;
4744;SDS011;2386;42.138;24.746;2022-10-26T02:35:34;37.70;;;8.07;;
4744;SDS011;2386;42.138;24.746;2022-10-26T02:38:02;52.07;;;9.10;;
4744;SDS011;2386;42.138;24.746;2022-10-26T02:40:31;34.40;;;7.43;;
4744;SDS011;2386;42.138;24.746;2022-10-26T02:43:00;29.60;;;6.80;;
4744;SDS011;2386;42.138;24.746;2022-10-26T02:45:32;35.97;;;6.87;;
4744;SDS011;2386;42.138;24.746;2022-10-26T02:48:01;29.33;;;7.70;;
4744;SDS011;2386;42.138;24.746;2022-10-26T02:50:29;32.40;;;6.80;;
4744;SDS011;2386;42.138;24.746;2022-10-26T02:55:43;30.23;;;7.10;;
4744;SDS011;2386;42.138;24.746;2022-10-26T02:58:15;39.17;;;7.73;;
4744;SDS011;2386;42.138;24.746;2022-10-26T03:00:50;39.33;;;7.60;;
4744;SDS011;2386;42.138;24.746;2022-10-26T03:03:17;31.60;;;6.77;;
4744;SDS011;2386;42.138;24.746;2022-10-26T03:05:44;34.80;;;6.90;;
4744;SDS011;2386;42.138;24.746;2022-10-26T03:08:09;27.33;;;6.83;;
4744;SDS011;2386;42.138;24.746;2022-10-26T03:10:37;31.30;;;7.40;;
4744;SDS011;2386;42.138;24.746;2022-10-26T03:13:05;33.30;;;7.80;;
4744;SDS011;2386;42.138;24.746;2022-10-26T03:15:30;31.30;;;7.00;;
4744;SDS011;2386;42.138;24.746;2022-10-26T03:17:56;36.77;;;7.27;;
4744;SDS011;2386;42.138;24.746;2022-10-26T03:20:21;36.97;;;7.73;;
4744;SDS011;2386;42.138;24.746;2022-10-26T03:22:47;26.33;;;7.00;;
4744;SDS011;2386;42.138;24.746;2022-10-26T03:25:12;28.33;;;6.53;;
4744;SDS011;2386;42.138;24.746;2022-10-26T03:27:39;29.87;;;7.27;;
4744;SDS011;2386;42.138;24.746;2022-10-26T03:30:05;39.33;;;7.40;;
4744;SDS011;2386;42.138;24.746;2022-10-26T03:32:31;33.90;;;8.53;;
4744;SDS011;2386;42.138;24.746;2022-10-26T03:34:56;32.57;;;8.30;;
4744;SDS011;2386;42.138;24.746;2022-10-26T03:37:22;36.97;;;9.23;;
4744;SDS011;2386;42.138;24.746;2022-10-26T03:39:47;57.13;;;8.70;;
4744;SDS011;2386;42.138;24.746;2022-10-26T03:42:13;36.80;;;8.17;;
4744;SDS011;2386;42.138;24.746;2022-10-26T03:44:38;36.20;;;7.40;;
4744;SDS011;2386;42.138;24.746;2022-10-26T03:47:03;26.90;;;6.53;;
4744;SDS011;2386;42.138;24.746;2022-10-26T03:49:29;38.87;;;7.00;;
4744;SDS011;2386;42.138;24.746;2022-10-26T03:51:54;32.10;;;6.70;;
4744;SDS011;2386;42.138;24.746;2022-10-26T03:54:20;29.37;;;6.90;;
4744;SDS011;2386;42.138;24.746;2022-10-26T03:56:48;45.17;;;7.70;;
4744;SDS011;2386;42.138;24.746;2022-10-26T03:59:16;33.13;;;7.60;;
4744;SDS011;2386;42.138;24.746;2022-10-26T04:01:41;33.77;;;7.43;;
4744;SDS011;2386;42.138;24.746;2022-10-26T04:04:07;35.97;;;7.60;;
4744;SDS011;2386;42.138;24.746;2022-10-26T04:06:32;44.53;;;9.20;;
4744;SDS011;2386;42.138;24.746;2022-10-26T04:08:57;34.40;;;7.30;;
4744;SDS011;2386;42.138;24.746;2022-10-26T04:11:26;34.47;;;7.60;;
4744;SDS011;2386;42.138;24.746;2022-10-26T04:13:52;19.43;;;6.00;;
4744;SDS011;2386;42.138;24.746;2022-10-26T04:16:19;28.67;;;7.17;;
4744;SDS011;2386;42.138;24.746;2022-10-26T04:18:47;23.53;;;6.57;;
4744;SDS011;2386;42.138;24.746;2022-10-26T04:21:12;28.17;;;7.40;;
4744;SDS011;2386;42.138;24.746;2022-10-26T04:23:38;32.63;;;7.73;;
4744;SDS011;2386;42.138;24.746;2022-10-26T04:26:04;17.23;;;6.20;;
4744;SDS011;2386;42.138;24.746;2022-10-26T04:28:29;33.40;;;6.17;;
4744;SDS011;2386;42.138;24.746;2022-10-26T04:30:55;28.23;;;7.10;;
4744;SDS011;2386;42.138;24.746;2022-10-26T04:33:20;20.57;;;6.23;;
4744;SDS011;2386;42.138;24.746;2022-10-26T04:35:45;23.50;;;7.00;;
4744;SDS011;2386;42.138;24.746;2022-10-26T04:38:12;58.30;;;23.67;;
4744;SDS011;2386;42.138;24.746;2022-10-26T04:40:37;33.20;;;8.13;;
4744;SDS011;2386;42.138;24.746;2022-10-26T04:43:03;15.40;;;6.67;;
4744;SDS011;2386;42.138;24.746;2022-10-26T04:45:28;27.73;;;7.10;;
4744;SDS011;2386;42.138;24.746;2022-10-26T04:48:02;23.50;;;6.27;;
4744;SDS011;2386;42.138;24.746;2022-10-26T04:50:27;36.57;;;7.17;;
4744;SDS011;2386;42.138;24.746;2022-10-26T04:53:00;22.93;;;6.67;;
4744;SDS011;2386;42.138;24.746;2022-10-26T04:55:26;45.30;;;8.67;;
4744;SDS011;2386;42.138;24.746;2022-10-26T04:57:52;28.63;;;6.63;;
4744;SDS011;2386;42.138;24.746;2022-10-26T05:00:17;36.80;;;7.13;;
4744;SDS011;2386;42.138;24.746;2022-10-26T05:02:43;37.90;;;7.80;;
4744;SDS011;2386;42.138;24.746;2022-10-26T05:05:08;63.43;;;10.03;;
4744;SDS011;2386;42.138;24.746;2022-10-26T05:07:34;29.73;;;7.63;;
4744;SDS011;2386;42.138;24.746;2022-10-26T05:09:59;32.53;;;7.20;;
4744;SDS011;2386;42.138;24.746;2022-10-26T05:12:24;30.90;;;6.40;;
4744;SDS011;2386;42.138;24.746;2022-10-26T05:14:50;26.60;;;6.50;;
4744;SDS011;2386;42.138;24.746;2022-10-26T05:17:15;38.27;;;7.73;;
4744;SDS011;2386;42.138;24.746;2022-10-26T05:19:41;50.13;;;7.67;;
4744;SDS011;2386;42.138;24.746;2022-10-26T05:22:06;24.50;;;5.53;;
4744;SDS011;2386;42.138;24.746;2022-10-26T05:24:32;32.13;;;6.73;;
4744;SDS011;2386;42.138;24.746;2022-10-26T05:26:57;27.43;;;5.97;;
4744;SDS011;2386;42.138;24.746;2022-10-26T05:29:22;28.33;;;6.37;;
4744;SDS011;2386;42.138;24.746;2022-10-26T05:31:48;19.93;;;6.00;;
4744;SDS011;2386;42.138;24.746;2022-10-26T05:34:13;37.17;;;7.80;;
4744;SDS011;2386;42.138;24.746;2022-10-26T05:36:38;31.00;;;6.80;;
4744;SDS011;2386;42.138;24.746;2022-10-26T05:39:04;24.63;;;6.10;;
4744;SDS011;2386;42.138;24.746;2022-10-26T05:41:29;27.93;;;6.40;;
4744;SDS011;2386;42.138;24.746;2022-10-26T05:43:55;47.80;;;8.73;;
4744;SDS011;2386;42.138;24.746;2022-10-26T05:46:20;32.50;;;7.17;;
4744;SDS011;2386;42.138;24.746;2022-10-26T05:48:45;28.13;;;6.73;;
4744;SDS011;2386;42.138;24.746;2022-10-26T05:51:11;41.67;;;7.40;;
4744;SDS011;2386;42.138;24.746;2022-10-26T05:53:36;45.70;;;8.30;;
4744;SDS011;2386;42.138;24.746;2022-10-26T05:56:02;37.30;;;7.80;;
4744;SDS011;2386;42.138;24.746;2022-10-26T05:58:40;32.47;;;7.50;;
4744;SDS011;2386;42.138;24.746;2022-10-26T06:01:16;51.03;;;8.97;;
4744;SDS011;2386;42.138;24.746;2022-10-26T06:04:36;20.77;;;5.90;;
4744;SDS011;2386;42.138;24.746;2022-10-26T06:07:11;31.03;;;8.03;;
4744;SDS011;2386;42.138;24.746;2022-10-26T06:09:46;35.07;;;6.80;;
4744;SDS011;2386;42.138;24.746;2022-10-26T06:12:12;51.07;;;9.17;;
4744;SDS011;2386;42.138;24.746;2022-10-26T06:14:38;24.97;;;6.87;;
4744;SDS011;2386;42.138;24.746;2022-10-26T06:17:14;31.60;;;6.77;;
4744;SDS011;2386;42.138;24.746;2022-10-26T06:30:47;29.30;;;6.90;;
4744;SDS011;2386;42.138;24.746;2022-10-26T06:33:13;21.73;;;6.63;;
4744;SDS011;2386;42.138;24.746;2022-10-26T06:38:22;31.53;;;6.57;;
4744;SDS011;2386;42.138;24.746;2022-10-26T06:40:52;59.57;;;9.57;;
4744;SDS011;2386;42.138;24.746;2022-10-26T06:43:24;30.33;;;6.87;;
4744;SDS011;2386;42.138;24.746;2022-10-26T06:52:04;33.10;;;6.83;;
4744;SDS011;2386;42.138;24.746;2022-10-26T06:57:10;117.77;;;17.93;;
4744;SDS011;2386;42.138;24.746;2022-10-26T06:59:39;36.83;;;8.03;;
4744;SDS011;2386;42.138;24.746;2022-10-26T07:02:07;23.20;;;6.00;;
4744;SDS011;2386;42.138;24.746;2022-10-26T07:04:33;31.20;;;5.80;;
4744;SDS011;2386;42.138;24.746;2022-10-26T07:06:59;33.27;;;6.73;;
4744;SDS011;2386;42.138;24.746;2022-10-26T07:09:24;40.33;;;6.77;;
4744;SDS011;2386;42.138;24.746;2022-10-26T07:11:50;28.07;;;6.70;;
4744;SDS011;2386;42.138;24.746;2022-10-26T07:14:15;15.07;;;5.00;;
4744;SDS011;2386;42.138;24.746;2022-10-26T07:16:40;27.47;;;5.97;;
4744;SDS011;2386;42.138;24.746;2022-10-26T07:19:06;32.63;;;6.40;;
4744;SDS011;2386;42.138;24.746;2022-10-26T07:21:31;24.17;;;5.77;;
4744;SDS011;2386;42.138;24.746;2022-10-26T07:23:57;34.37;;;6.20;;
4744;SDS011;2386;42.138;24.746;2022-10-26T07:26:22;27.77;;;5.67;;
4744;SDS011;2386;42.138;24.746;2022-10-26T07:28:49;23.77;;;5.67;;
4744;SDS011;2386;42.138;24.746;2022-10-26T07:31:15;35.87;;;5.60;;
4744;SDS011;2386;42.138;24.746;2022-10-26T07:33:41;29.27;;;6.03;;
4744;SDS011;2386;42.138;24.746;2022-10-26T07:36:08;25.03;;;6.03;;
4744;SDS011;2386;42.138;24.746;2022-10-26T07:38:35;21.10;;;5.80;;
4744;SDS011;2386;42.138;24.746;2022-10-26T07:41:01;32.97;;;6.00;;
4744;SDS011;2386;42.138;24.746;2022-10-26T07:43:28;15.53;;;5.10;;
4744;SDS011;2386;42.138;24.746;2022-10-26T07:45:53;41.40;;;7.53;;
4744;SDS011;2386;42.138;24.746;2022-10-26T07:48:19;27.50;;;5.17;;
4744;SDS011;2386;42.138;24.746;2022-10-26T07:50:44;38.03;;;6.07;;
4744;SDS011;2386;42.138;24.746;2022-10-26T07:53:10;24.70;;;6.43;;
4744;SDS011;2386;42.138;24.746;2022-10-26T07:55:35;34.13;;;7.70;;
4744;SDS011;2386;42.138;24.746;2022-10-26T07:58:00;22.00;;;5.83;;
4744;SDS011;2386;42.138;24.746;2022-10-26T08:00:26;25.13;;;6.17;;
4744;SDS011;2386;42.138;24.746;2022-10-26T08:02:52;31.27;;;6.87;;
4744;SDS011;2386;42.138;24.746;2022-10-26T08:05:18;15.13;;;5.30;;
4744;SDS011;2386;42.138;24.746;2022-10-26T08:07:44;26.13;;;4.97;;
4744;SDS011;2386;42.138;24.746;2022-10-26T08:10:13;19.37;;;5.00;;
4744;SDS011;2386;42.138;24.746;2022-10-26T08:12:39;16.10;;;5.57;;
4744;SDS011;2386;42.138;24.746;2022-10-26T08:15:06;12.10;;;4.93;;
4744;SDS011;2386;42.138;24.746;2022-10-26T08:17:32;15.70;;;4.73;;
4744;SDS011;2386;42.138;24.746;2022-10-26T08:19:57;28.50;;;5.13;;
4744;SDS011;2386;42.138;24.746;2022-10-26T08:22:23;35.40;;;6.90;;
4744;SDS011;2386;42.138;24.746;2022-10-26T08:24:48;27.87;;;5.73;;
4744;SDS011;2386;42.138;24.746;2022-10-26T08:27:14;18.53;;;4.73;;
4744;SDS011;2386;42.138;24.746;2022-10-26T08:29:40;17.13;;;4.60;;
4744;SDS011;2386;42.138;24.746;2022-10-26T08:32:06;24.73;;;5.47;;
4744;SDS011;2386;42.138;24.746;2022-10-26T08:34:32;19.20;;;5.30;;
4744;SDS011;2386;42.138;24.746;2022-10-26T08:36:57;19.27;;;5.27;;
4744;SDS011;2386;42.138;24.746;2022-10-26T08:39:23;15.37;;;5.30;;
4744;SDS011;2386;42.138;24.746;2022-10-26T08:41:53;45.80;;;8.83;;
4744;SDS011;2386;42.138;24.746;2022-10-26T08:44:28;30.63;;;6.53;;
4744;SDS011;2386;42.138;24.746;2022-10-26T08:47:03;23.37;;;5.30;;
4744;SDS011;2386;42.138;24.746;2022-10-26T08:49:38;26.87;;;6.37;;
4744;SDS011;2386;42.138;24.746;2022-10-26T08:52:46;21.83;;;5.40;;
4744;SDS011;2386;42.138;24.746;2022-10-26T08:55:18;32.47;;;6.20;;
4744;SDS011;2386;42.138;24.746;2022-10-26T08:57:57;30.23;;;6.20;;
4744;SDS011;2386;42.138;24.746;2022-10-26T09:00:26;21.83;;;5.30;;
4744;SDS011;2386;42.138;24.746;2022-10-26T09:02:54;19.77;;;5.33;;
4744;SDS011;2386;42.138;24.746;2022-10-26T09:14:08;11.43;;;4.83;;
4744;SDS011;2386;42.138;24.746;2022-10-26T09:17:01;12.93;;;3.93;;
4744;SDS011;2386;42.138;24.746;2022-10-26T09:19:41;22.77;;;4.50;;
4744;SDS011;2386;42.138;24.746;2022-10-26T09:25:22;14.53;;;3.90;;
4744;SDS011;2386;42.138;24.746;2022-10-26T09:27:53;11.23;;;3.40;;
4744;SDS011;2386;42.138;24.746;2022-10-26T09:30:23;18.07;;;3.80;;
4744;SDS011;2386;42.138;24.746;2022-10-26T09:32:51;18.60;;;5.17;;
4744;SDS011;2386;42.138;24.746;2022-10-26T09:35:22;21.27;;;4.13;;
4744;SDS011;2386;42.138;24.746;2022-10-26T09:37:50;25.13;;;5.47;;
4744;SDS011;2386;42.138;24.746;2022-10-26T09:40:28;27.93;;;5.20;;
4744;SDS011;2386;42.138;24.746;2022-10-26T09:43:06;36.17;;;11.33;;
4744;SDS011;2386;42.138;24.746;2022-10-26T09:45:41;41.77;;;16.57;;
4744;SDS011;2386;42.138;24.746;2022-10-26T09:48:13;41.83;;;12.13;;
4744;SDS011;2386;42.138;24.746;2022-10-26T09:50:45;39.13;;;6.67;;
4744;SDS011;2386;42.138;24.746;2022-10-26T09:53:13;28.40;;;5.83;;
4744;SDS011;2386;42.138;24.746;2022-10-26T09:55:46;18.63;;;3.90;;
4744;SDS011;2386;42.138;24.746;2022-10-26T09:58:14;22.30;;;5.07;;
4744;SDS011;2386;42.138;24.746;2022-10-26T10:00:44;23.60;;;4.50;;
4744;SDS011;2386;42.138;24.746;2022-10-26T10:03:29;17.33;;;4.50;;
4744;SDS011;2386;42.138;24.746;2022-10-26T10:06:16;30.67;;;5.40;;
4744;SDS011;2386;42.138;24.746;2022-10-26T10:08:43;13.83;;;4.10;;
4744;SDS011;2386;42.138;24.746;2022-10-26T10:11:11;14.63;;;3.50;;
4744;SDS011;2386;42.138;24.746;2022-10-26T10:13:43;24.93;;;5.00;;
4744;SDS011;2386;42.138;24.746;2022-10-26T10:18:40;16.50;;;3.73;;
4744;SDS011;2386;42.138;24.746;2022-10-26T10:21:06;6.60;;;3.03;;
4744;SDS011;2386;42.138;24.746;2022-10-26T10:23:49;21.90;;;4.10;;
4744;SDS011;2386;42.138;24.746;2022-10-26T10:26:19;30.87;;;4.97;;
4744;SDS011;2386;42.138;24.746;2022-10-26T10:28:54;20.20;;;3.63;;
4744;SDS011;2386;42.138;24.746;2022-10-26T10:31:31;55.70;;;7.93;;
4744;SDS011;2386;42.138;24.746;2022-10-26T10:33:57;32.20;;;5.63;;
4744;SDS011;2386;42.138;24.746;2022-10-26T10:36:24;22.17;;;5.03;;
4744;SDS011;2386;42.138;24.746;2022-10-26T10:38:53;31.83;;;5.87;;
4744;SDS011;2386;42.138;24.746;2022-10-26T10:41:32;26.10;;;4.17;;
4744;SDS011;2386;42.138;24.746;2022-10-26T10:46:29;29.13;;;5.30;;
4744;SDS011;2386;42.138;24.746;2022-10-26T10:48:59;23.93;;;5.00;;
4744;SDS011;2386;42.138;24.746;2022-10-26T10:51:27;21.27;;;4.20;;
4744;SDS011;2386;42.138;24.746;2022-10-26T10:54:00;9.30;;;3.90;;
4744;SDS011;2386;42.138;24.746;2022-10-26T11:04:47;13.13;;;2.70;;
4744;SDS011;2386;42.138;24.746;2022-10-26T11:07:18;20.77;;;3.80;;
4744;SDS011;2386;42.138;24.746;2022-10-26T11:09:46;16.83;;;3.70;;
4744;SDS011;2386;42.138;24.746;2022-10-26T11:15:05;13.93;;;3.97;;
4744;SDS011;2386;42.138;24.746;2022-10-26T11:17:39;15.00;;;3.87;;
4744;SDS011;2386;42.138;24.746;2022-10-26T11:20:14;16.67;;;3.80;;
4744;SDS011;2386;42.138;24.746;2022-10-26T11:25:32;17.43;;;3.37;;
4744;SDS011;2386;42.138;24.746;2022-10-26T11:31:28;22.20;;;4.67;;
4744;SDS011;2386;42.138;24.746;2022-10-26T11:36:57;14.00;;;3.40;;
4744;SDS011;2386;42.138;24.746;2022-10-26T11:44:52;18.63;;;4.33;;
4744;SDS011;2386;42.138;24.746;2022-10-26T11:47:25;8.30;;;3.40;;
4744;SDS011;2386;42.138;24.746;2022-10-26T11:52:29;36.00;;;7.17;;
4744;SDS011;2386;42.138;24.746;2022-10-26T11:55:01;22.20;;;5.23;;
4744;SDS011;2386;42.138;24.746;2022-10-26T11:57:32;39.80;;;8.40;;
4744;SDS011;2386;42.138;24.746;2022-10-26T12:00:04;18.70;;;5.77;;
4744;SDS011;2386;42.138;24.746;2022-10-26T12:02:41;23.40;;;5.67;;
4744;SDS011;2386;42.138;24.746;2022-10-26T12:05:41;37.27;;;6.00;;
4744;SDS011;2386;42.138;24.746;2022-10-26T12:10:41;11.53;;;5.90;;
4744;SDS011;2386;42.138;24.746;2022-10-26T12:26:50;43.33;;;9.23;;
4744;SDS011;2386;42.138;24.746;2022-10-26T14:43:19;48.40;;;7.97;;
4744;SDS011;2386;42.138;24.746;2022-10-26T14:45:48;34.53;;;7.83;;
4744;SDS011;2386;42.138;24.746;2022-10-26T14:48:21;24.73;;;5.43;;
4744;SDS011;2386;42.138;24.746;2022-10-26T14:53:40;11.67;;;5.50;;
4744;SDS011;2386;42.138;24.746;2022-10-26T14:56:20;26.80;;;5.67;;
4744;SDS011;2386;42.138;24.746;2022-10-26T15:40:43;41.33;;;9.07;;
4744;SDS011;2386;42.138;24.746;2022-10-26T15:43:12;28.47;;;7.03;;
4744;SDS011;2386;42.138;24.746;2022-10-26T15:45:44;31.43;;;6.20;;
4744;SDS011;2386;42.138;24.746;2022-10-26T15:48:21;34.53;;;7.40;;
4744;SDS011;2386;42.138;24.746;2022-10-26T15:50:56;34.63;;;7.13;;
4744;SDS011;2386;42.138;24.746;2022-10-26T15:53:23;49.67;;;8.53;;
4744;SDS011;2386;42.138;24.746;2022-10-26T15:55:55;31.77;;;7.37;;
4744;SDS011;2386;42.138;24.746;2022-10-26T15:58:22;41.47;;;7.73;;
4744;SDS011;2386;42.138;24.746;2022-10-26T16:00:48;36.50;;;6.77;;
4744;SDS011;2386;42.138;24.746;2022-10-26T16:03:18;64.10;;;9.00;;
4744;SDS011;2386;42.138;24.746;2022-10-26T16:05:52;44.03;;;7.57;;
4744;SDS011;2386;42.138;24.746;2022-10-26T16:08:22;45.50;;;8.77;;
4744;SDS011;2386;42.138;24.746;2022-10-26T16:10:47;39.80;;;8.40;;
4744;SDS011;2386;42.138;24.746;2022-10-26T16:13:15;58.90;;;10.97;;
4744;SDS011;2386;42.138;24.746;2022-10-26T16:15:41;36.07;;;7.37;;
4744;SDS011;2386;42.138;24.746;2022-10-26T16:18:08;41.87;;;9.77;;
4744;SDS011;2386;42.138;24.746;2022-10-26T16:20:33;37.13;;;9.33;;
4744;SDS011;2386;42.138;24.746;2022-10-26T17:04:33;39.87;;;15.70;;
4744;SDS011;2386;42.138;24.746;2022-10-26T17:07:00;60.57;;;25.90;;
4744;SDS011;2386;42.138;24.746;2022-10-26T17:09:25;59.73;;;25.90;;
4744;SDS011;2386;42.138;24.746;2022-10-26T17:11:51;73.83;;;15.60;;
4744;SDS011;2386;42.138;24.746;2022-10-26T17:17:40;47.10;;;13.87;;
4744;SDS011;2386;42.138;24.746;2022-10-26T17:20:05;41.73;;;12.50;;
4744;SDS011;2386;42.138;24.746;2022-10-26T17:22:31;35.00;;;13.33;;
4744;SDS011;2386;42.138;24.746;2022-10-26T17:24:57;53.87;;;14.67;;
4744;SDS011;2386;42.138;24.746;2022-10-26T17:27:23;38.23;;;12.37;;
4744;SDS011;2386;42.138;24.746;2022-10-26T17:29:50;47.03;;;13.57;;
4744;SDS011;2386;42.138;24.746;2022-10-26T17:32:16;41.93;;;13.13;;
4744;SDS011;2386;42.138;24.746;2022-10-26T17:34:41;36.90;;;12.17;;
4744;SDS011;2386;42.138;24.746;2022-10-26T17:37:07;41.20;;;12.67;;
4744;SDS011;2386;42.138;24.746;2022-10-26T17:39:32;36.93;;;13.17;;
4744;SDS011;2386;42.138;24.746;2022-10-26T17:41:58;33.00;;;12.80;;
4744;SDS011;2386;42.138;24.746;2022-10-26T17:44:25;37.63;;;13.10;;
4744;SDS011;2386;42.138;24.746;2022-10-26T17:46:50;34.43;;;12.90;;
4744;SDS011;2386;42.138;24.746;2022-10-26T17:49:15;40.70;;;13.07;;
4744;SDS011;2386;42.138;24.746;2022-10-26T17:51:41;37.33;;;12.50;;
4744;SDS011;2386;42.138;24.746;2022-10-26T17:54:06;38.27;;;13.13;;
4744;SDS011;2386;42.138;24.746;2022-10-26T17:56:32;33.73;;;11.00;;
4744;SDS011;2386;42.138;24.746;2022-10-26T17:59:01;31.57;;;11.13;;
4744;SDS011;2386;42.138;24.746;2022-10-26T18:01:30;47.33;;;11.97;;
4744;SDS011;2386;42.138;24.746;2022-10-26T18:03:57;21.03;;;10.80;;
4744;SDS011;2386;42.138;24.746;2022-10-26T18:06:23;29.90;;;12.10;;
4744;SDS011;2386;42.138;24.746;2022-10-26T18:08:49;42.70;;;24.40;;
4744;SDS011;2386;42.138;24.746;2022-10-26T18:11:15;42.13;;;17.63;;
4744;SDS011;2386;42.138;24.746;2022-10-26T18:13:43;30.23;;;17.27;;
4744;SDS011;2386;42.138;24.746;2022-10-26T18:16:10;34.83;;;16.37;;
4744;SDS011;2386;42.138;24.746;2022-10-26T18:18:37;30.73;;;13.87;;
4744;SDS011;2386;42.138;24.746;2022-10-26T18:21:05;23.40;;;11.17;;
4744;SDS011;2386;42.138;24.746;2022-10-26T18:23:32;18.07;;;9.90;;
4744;SDS011;2386;42.138;24.746;2022-10-26T18:26:02;19.70;;;8.17;;
4744;SDS011;2386;42.138;24.746;2022-10-26T18:28:28;24.57;;;8.67;;
4744;SDS011;2386;42.138;24.746;2022-10-26T18:31:01;26.43;;;9.53;;
4744;SDS011;2386;42.138;24.746;2022-10-26T18:33:28;26.43;;;8.53;;
4744;SDS011;2386;42.138;24.746;2022-10-26T18:35:58;22.50;;;9.57;;
4744;SDS011;2386;42.138;24.746;2022-10-26T18:38:28;31.37;;;11.70;;
4744;SDS011;2386;42.138;24.746;2022-10-26T18:40:55;32.73;;;10.40;;
4744;SDS011;2386;42.138;24.746;2022-10-26T18:43:21;23.40;;;9.97;;
4744;SDS011;2386;42.138;24.746;2022-10-26T18:45:46;28.97;;;10.60;;
4744;SDS011;2386;42.138;24.746;2022-10-26T18:48:12;32.93;;;10.40;;
4744;SDS011;2386;42.138;24.746;2022-10-26T18:50:38;27.83;;;10.60;;
4744;SDS011;2386;42.138;24.746;2022-10-26T18:53:04;30.83;;;10.50;;
4744;SDS011;2386;42.138;24.746;2022-10-26T18:55:36;22.90;;;10.30;;
4744;SDS011;2386;42.138;24.746;2022-10-26T18:58:05;26.90;;;10.87;;
4744;SDS011;2386;42.138;24.746;2022-10-26T19:00:34;25.83;;;10.40;;
4744;SDS011;2386;42.138;24.746;2022-10-26T19:03:00;37.93;;;12.67;;
4744;SDS011;2386;42.138;24.746;2022-10-26T19:05:28;33.50;;;11.83;;
4744;SDS011;2386;42.138;24.746;2022-10-26T19:07:57;33.57;;;11.33;;
4744;SDS011;2386;42.138;24.746;2022-10-26T19:10:22;37.50;;;11.93;;
4744;SDS011;2386;42.138;24.746;2022-10-26T19:12:47;31.60;;;11.93;;
4744;SDS011;2386;42.138;24.746;2022-10-26T19:15:13;35.53;;;11.57;;
4744;SDS011;2386;42.138;24.746;2022-10-26T19:17:38;35.90;;;12.10;;
4744;SDS011;2386;42.138;24.746;2022-10-26T19:20:04;31.23;;;11.57;;
4744;SDS011;2386;42.138;24.746;2022-10-26T19:22:29;34.77;;;12.03;;
4744;SDS011;2386;42.138;24.746;2022-10-26T19:24:55;33.43;;;10.83;;
4744;SDS011;2386;42.138;24.746;2022-10-26T19:27:21;30.57;;;11.77;;
4744;SDS011;2386;42.138;24.746;2022-10-26T19:29:46;37.10;;;12.47;;
4744;SDS011;2386;42.138;24.746;2022-10-26T19:32:12;33.30;;;11.87;;
4744;SDS011;2386;42.138;24.746;2022-10-26T19:34:38;36.33;;;13.00;;
4744;SDS011;2386;42.138;24.746;2022-10-26T19:37:04;40.93;;;13.37;;
4744;SDS011;2386;42.138;24.746;2022-10-26T19:39:29;39.83;;;12.87;;
4744;SDS011;2386;42.138;24.746;2022-10-26T19:41:55;42.20;;;12.50;;
4744;SDS011;2386;42.138;24.746;2022-10-26T19:44:20;51.30;;;13.80;;
4744;SDS011;2386;42.138;24.746;2022-10-26T19:46:46;44.53;;;13.77;;
4744;SDS011;2386;42.138;24.746;2022-10-26T19:49:12;35.77;;;12.67;;
4744;SDS011;2386;42.138;24.746;2022-10-26T19:51:40;30.30;;;11.93;;
4744;SDS011;2386;42.138;24.746;2022-10-26T19:54:06;34.80;;;12.47;;
4744;SDS011;2386;42.138;24.746;2022-10-26T19:56:32;39.70;;;13.00;;
4744;SDS011;2386;42.138;24.746;2022-10-26T19:58:58;40.10;;;12.43;;
4744;SDS011;2386;42.138;24.746;2022-10-26T20:01:25;29.90;;;11.50;;
4744;SDS011;2386;42.138;24.746;2022-10-26T20:03:50;44.67;;;12.70;;
4744;SDS011;2386;42.138;24.746;2022-10-26T20:06:16;37.53;;;12.00;;
4744;SDS011;2386;42.138;24.746;2022-10-26T20:08:43;29.13;;;11.30;;
4744;SDS011;2386;42.138;24.746;2022-10-26T20:11:11;41.47;;;11.90;;
4744;SDS011;2386;42.138;24.746;2022-10-26T20:13:38;39.63;;;12.30;;
4744;SDS011;2386;42.138;24.746;2022-10-26T20:16:05;20.30;;;9.00;;
4744;SDS011;2386;42.138;24.746;2022-10-26T20:21:19;27.00;;;10.27;;
4744;SDS011;2386;42.138;24.746;2022-10-26T20:23:45;24.73;;;10.60;;
4744;SDS011;2386;42.138;24.746;2022-10-26T20:26:10;42.07;;;11.90;;
4744;SDS011;2386;42.138;24.746;2022-10-26T20:28:47;35.10;;;11.97;;
4744;SDS011;2386;42.138;24.746;2022-10-26T20:31:14;32.87;;;10.80;;
4744;SDS011;2386;42.138;24.746;2022-10-26T20:33:40;27.47;;;10.77;;
4744;SDS011;2386;42.138;24.746;2022-10-26T20:36:06;32.43;;;10.53;;